sensor_id;sensor_type;location;lat;lon;timestamp;P1;durP1;ratioP1;P2;durP2;ratioP2
59970;SDS011;45825;45.434;9.116;2022-08-01T00:02:03;6.95;;;3.08;;
59970;SDS011;45825;45.434;9.116;2022-08-01T00:04:29;7.53;;;3.22;;
59970;SDS011;45825;45.434;9.116;2022-08-01T00:06:54;7.75;;;3.47;;
59970;SDS011;45825;45.434;9.116;2022-08-01T00:09:19;8.57;;;3.20;;
59970;SDS011;45825;45.434;9.116;2022-08-01T00:11:45;6.65;;;3.47;;
59970;SDS011;45825;45.434;9.116;2022-08-01T00:14:10;6.05;;;3.30;;
59970;SDS011;45825;45.434;9.116;2022-08-01T00:16:36;8.00;;;3.58;;
59970;SDS011;45825;45.434;9.116;2022-08-01T00:19:01;5.55;;;3.10;;
59970;SDS011;45825;45.434;9.116;2022-08-01T00:21:26;7.97;;;3.40;;
59970;SDS011;45825;45.434;9.116;2022-08-01T00:23:52;6.63;;;3.35;;
59970;SDS011;45825;45.434;9.116;2022-08-01T00:26:17;6.65;;;3.60;;
59970;SDS011;45825;45.434;9.116;2022-08-01T00:28:42;7.47;;;3.58;;
59970;SDS011;45825;45.434;9.116;2022-08-01T00:31:08;5.47;;;3.15;;
59970;SDS011;45825;45.434;9.116;2022-08-01T00:33:33;7.28;;;3.05;;
59970;SDS011;45825;45.434;9.116;2022-08-01T00:35:59;7.15;;;3.03;;
59970;SDS011;45825;45.434;9.116;2022-08-01T00:38:24;6.93;;;3.08;;
59970;SDS011;45825;45.434;9.116;2022-08-01T00:40:50;6.75;;;2.95;;
59970;SDS011;45825;45.434;9.116;2022-08-01T00:43:15;9.77;;;2.92;;
59970;SDS011;45825;45.434;9.116;2022-08-01T00:45:41;4.60;;;2.67;;
59970;SDS011;45825;45.434;9.116;2022-08-01T00:48:07;5.90;;;2.60;;
59970;SDS011;45825;45.434;9.116;2022-08-01T00:50:32;5.63;;;3.08;;
59970;SDS011;45825;45.434;9.116;2022-08-01T00:52:58;6.43;;;2.75;;
59970;SDS011;45825;45.434;9.116;2022-08-01T00:55:28;5.03;;;2.60;;
59970;SDS011;45825;45.434;9.116;2022-08-01T00:57:55;6.20;;;3.15;;
59970;SDS011;45825;45.434;9.116;2022-08-01T01:00:21;6.35;;;2.70;;
59970;SDS011;45825;45.434;9.116;2022-08-01T01:02:49;4.88;;;2.70;;
59970;SDS011;45825;45.434;9.116;2022-08-01T01:05:14;4.70;;;2.70;;
59970;SDS011;45825;45.434;9.116;2022-08-01T01:07:46;5.68;;;2.70;;
59970;SDS011;45825;45.434;9.116;2022-08-01T01:10:16;6.90;;;2.65;;
59970;SDS011;45825;45.434;9.116;2022-08-01T01:12:57;5.03;;;2.50;;
59970;SDS011;45825;45.434;9.116;2022-08-01T01:15:43;5.68;;;2.45;;
59970;SDS011;45825;45.434;9.116;2022-08-01T01:18:17;4.95;;;2.40;;
59970;SDS011;45825;45.434;9.116;2022-08-01T01:21:23;4.82;;;2.63;;
59970;SDS011;45825;45.434;9.116;2022-08-01T01:23:58;5.88;;;2.55;;
59970;SDS011;45825;45.434;9.116;2022-08-01T01:26:40;5.63;;;2.88;;
59970;SDS011;45825;45.434;9.116;2022-08-01T01:34:45;5.20;;;2.42;;
59970;SDS011;45825;45.434;9.116;2022-08-01T01:37:17;4.65;;;2.70;;
59970;SDS011;45825;45.434;9.116;2022-08-01T01:39:46;5.35;;;2.40;;
59970;SDS011;45825;45.434;9.116;2022-08-01T01:42:14;5.95;;;2.80;;
59970;SDS011;45825;45.434;9.116;2022-08-01T01:44:42;5.80;;;3.00;;
59970;SDS011;45825;45.434;9.116;2022-08-01T01:47:09;8.23;;;3.13;;
59970;SDS011;45825;45.434;9.116;2022-08-01T01:49:36;5.50;;;2.72;;
59970;SDS011;45825;45.434;9.116;2022-08-01T01:52:02;6.05;;;2.90;;
59970;SDS011;45825;45.434;9.116;2022-08-01T01:54:33;5.38;;;2.85;;
59970;SDS011;45825;45.434;9.116;2022-08-01T01:57:02;4.63;;;2.67;;
59970;SDS011;45825;45.434;9.116;2022-08-01T01:59:30;5.63;;;2.70;;
59970;SDS011;45825;45.434;9.116;2022-08-01T02:01:58;8.23;;;3.33;;
59970;SDS011;45825;45.434;9.116;2022-08-01T02:04:26;11.02;;;3.30;;
59970;SDS011;45825;45.434;9.116;2022-08-01T02:06:53;7.35;;;3.10;;
59970;SDS011;45825;45.434;9.116;2022-08-01T02:09:19;7.20;;;3.13;;
59970;SDS011;45825;45.434;9.116;2022-08-01T02:11:47;7.10;;;3.17;;
59970;SDS011;45825;45.434;9.116;2022-08-01T02:14:14;6.50;;;3.20;;
59970;SDS011;45825;45.434;9.116;2022-08-01T02:16:42;5.50;;;3.28;;
59970;SDS011;45825;45.434;9.116;2022-08-01T02:19:12;8.48;;;2.95;;
59970;SDS011;45825;45.434;9.116;2022-08-01T02:24:17;5.88;;;2.53;;
59970;SDS011;45825;45.434;9.116;2022-08-01T02:26:54;5.25;;;2.72;;
59970;SDS011;45825;45.434;9.116;2022-08-01T02:29:27;6.25;;;2.78;;
59970;SDS011;45825;45.434;9.116;2022-08-01T02:31:58;4.82;;;2.80;;
59970;SDS011;45825;45.434;9.116;2022-08-01T02:34:25;5.75;;;2.80;;
59970;SDS011;45825;45.434;9.116;2022-08-01T02:36:56;5.45;;;3.22;;
59970;SDS011;45825;45.434;9.116;2022-08-01T02:39:23;8.18;;;2.88;;
59970;SDS011;45825;45.434;9.116;2022-08-01T02:41:55;6.93;;;3.08;;
59970;SDS011;45825;45.434;9.116;2022-08-01T02:44:24;6.90;;;2.92;;
59970;SDS011;45825;45.434;9.116;2022-08-01T02:46:58;7.55;;;3.35;;
59970;SDS011;45825;45.434;9.116;2022-08-01T02:49:27;8.23;;;3.25;;
59970;SDS011;45825;45.434;9.116;2022-08-01T02:51:56;7.15;;;2.65;;
59970;SDS011;45825;45.434;9.116;2022-08-01T02:54:22;7.43;;;2.83;;
59970;SDS011;45825;45.434;9.116;2022-08-01T02:56:50;6.03;;;2.90;;
59970;SDS011;45825;45.434;9.116;2022-08-01T02:59:17;6.90;;;3.00;;
59970;SDS011;45825;45.434;9.116;2022-08-01T03:01:45;6.80;;;2.55;;
59970;SDS011;45825;45.434;9.116;2022-08-01T03:04:12;4.50;;;2.85;;
59970;SDS011;45825;45.434;9.116;2022-08-01T03:06:38;5.78;;;2.90;;
59970;SDS011;45825;45.434;9.116;2022-08-01T03:09:04;9.32;;;3.33;;
59970;SDS011;45825;45.434;9.116;2022-08-01T03:11:31;6.50;;;3.17;;
59970;SDS011;45825;45.434;9.116;2022-08-01T03:13:59;6.38;;;2.70;;
59970;SDS011;45825;45.434;9.116;2022-08-01T03:18:56;6.72;;;2.80;;
59970;SDS011;45825;45.434;9.116;2022-08-01T03:21:23;7.68;;;2.90;;
59970;SDS011;45825;45.434;9.116;2022-08-01T03:23:49;7.30;;;3.10;;
59970;SDS011;45825;45.434;9.116;2022-08-01T03:26:16;6.97;;;2.90;;
59970;SDS011;45825;45.434;9.116;2022-08-01T03:28:42;6.20;;;2.80;;
59970;SDS011;45825;45.434;9.116;2022-08-01T03:31:11;5.45;;;2.60;;
59970;SDS011;45825;45.434;9.116;2022-08-01T03:33:38;6.88;;;2.85;;
59970;SDS011;45825;45.434;9.116;2022-08-01T03:36:04;6.57;;;2.75;;
59970;SDS011;45825;45.434;9.116;2022-08-01T03:38:33;6.07;;;2.83;;
59970;SDS011;45825;45.434;9.116;2022-08-01T03:41:07;6.07;;;2.72;;
59970;SDS011;45825;45.434;9.116;2022-08-01T03:43:47;5.38;;;2.83;;
59970;SDS011;45825;45.434;9.116;2022-08-01T03:46:20;9.38;;;3.00;;
59970;SDS011;45825;45.434;9.116;2022-08-01T03:48:52;6.85;;;2.75;;
59970;SDS011;45825;45.434;9.116;2022-08-01T03:51:21;6.10;;;2.70;;
59970;SDS011;45825;45.434;9.116;2022-08-01T03:53:48;7.43;;;2.63;;
59970;SDS011;45825;45.434;9.116;2022-08-01T03:56:16;8.90;;;2.85;;
59970;SDS011;45825;45.434;9.116;2022-08-01T03:58:44;6.25;;;3.05;;
59970;SDS011;45825;45.434;9.116;2022-08-01T04:01:10;6.93;;;2.97;;
59970;SDS011;45825;45.434;9.116;2022-08-01T04:03:35;7.30;;;3.00;;
59970;SDS011;45825;45.434;9.116;2022-08-01T04:06:05;8.18;;;3.17;;
59970;SDS011;45825;45.434;9.116;2022-08-01T04:08:34;6.63;;;3.00;;
59970;SDS011;45825;45.434;9.116;2022-08-01T04:11:00;7.07;;;3.10;;
59970;SDS011;45825;45.434;9.116;2022-08-01T04:13:26;7.22;;;3.00;;
59970;SDS011;45825;45.434;9.116;2022-08-01T04:15:51;8.43;;;3.33;;
59970;SDS011;45825;45.434;9.116;2022-08-01T04:18:16;9.10;;;3.20;;
59970;SDS011;45825;45.434;9.116;2022-08-01T04:20:42;7.38;;;3.05;;
59970;SDS011;45825;45.434;9.116;2022-08-01T04:23:07;7.18;;;2.88;;
59970;SDS011;45825;45.434;9.116;2022-08-01T04:25:35;6.18;;;3.08;;
59970;SDS011;45825;45.434;9.116;2022-08-01T04:28:04;6.73;;;3.27;;
59970;SDS011;45825;45.434;9.116;2022-08-01T04:30:34;6.20;;;3.05;;
59970;SDS011;45825;45.434;9.116;2022-08-01T04:33:02;7.50;;;3.30;;
59970;SDS011;45825;45.434;9.116;2022-08-01T04:35:30;7.20;;;3.72;;
59970;SDS011;45825;45.434;9.116;2022-08-01T04:37:57;6.80;;;3.13;;
59970;SDS011;45825;45.434;9.116;2022-08-01T04:40:24;8.48;;;3.22;;
59970;SDS011;45825;45.434;9.116;2022-08-01T04:42:51;13.02;;;3.83;;
59970;SDS011;45825;45.434;9.116;2022-08-01T04:45:16;10.02;;;3.60;;
59970;SDS011;45825;45.434;9.116;2022-08-01T04:47:42;7.90;;;3.75;;
59970;SDS011;45825;45.434;9.116;2022-08-01T04:50:08;7.70;;;3.35;;
59970;SDS011;45825;45.434;9.116;2022-08-01T04:52:35;6.25;;;3.15;;
59970;SDS011;45825;45.434;9.116;2022-08-01T04:55:02;6.28;;;3.38;;
59970;SDS011;45825;45.434;9.116;2022-08-01T04:57:28;5.47;;;3.00;;
59970;SDS011;45825;45.434;9.116;2022-08-01T04:59:55;7.97;;;3.35;;
59970;SDS011;45825;45.434;9.116;2022-08-01T05:02:22;7.07;;;3.50;;
59970;SDS011;45825;45.434;9.116;2022-08-01T05:04:47;8.35;;;4.07;;
59970;SDS011;45825;45.434;9.116;2022-08-01T05:07:13;7.78;;;3.53;;
59970;SDS011;45825;45.434;9.116;2022-08-01T05:09:39;6.43;;;3.08;;
59970;SDS011;45825;45.434;9.116;2022-08-01T05:12:11;5.53;;;3.03;;
59970;SDS011;45825;45.434;9.116;2022-08-01T05:14:37;5.68;;;2.95;;
59970;SDS011;45825;45.434;9.116;2022-08-01T05:17:03;6.45;;;3.00;;
59970;SDS011;45825;45.434;9.116;2022-08-01T05:19:29;9.45;;;3.30;;
59970;SDS011;45825;45.434;9.116;2022-08-01T05:21:56;5.85;;;3.00;;
59970;SDS011;45825;45.434;9.116;2022-08-01T05:24:22;6.63;;;3.42;;
59970;SDS011;45825;45.434;9.116;2022-08-01T05:26:48;8.95;;;3.60;;
59970;SDS011;45825;45.434;9.116;2022-08-01T05:29:14;9.10;;;3.47;;
59970;SDS011;45825;45.434;9.116;2022-08-01T05:31:39;6.50;;;3.10;;
59970;SDS011;45825;45.434;9.116;2022-08-01T05:34:05;8.88;;;2.97;;
59970;SDS011;45825;45.434;9.116;2022-08-01T05:36:30;6.78;;;3.42;;
59970;SDS011;45825;45.434;9.116;2022-08-01T05:38:55;7.82;;;3.40;;
59970;SDS011;45825;45.434;9.116;2022-08-01T05:41:21;7.55;;;3.17;;
59970;SDS011;45825;45.434;9.116;2022-08-01T05:43:46;8.23;;;3.30;;
59970;SDS011;45825;45.434;9.116;2022-08-01T05:46:11;6.65;;;3.10;;
59970;SDS011;45825;45.434;9.116;2022-08-01T05:48:37;6.22;;;2.90;;
59970;SDS011;45825;45.434;9.116;2022-08-01T05:51:03;8.23;;;3.20;;
59970;SDS011;45825;45.434;9.116;2022-08-01T05:53:28;6.80;;;3.03;;
59970;SDS011;45825;45.434;9.116;2022-08-01T05:55:54;6.68;;;2.95;;
59970;SDS011;45825;45.434;9.116;2022-08-01T05:58:19;5.90;;;2.65;;
59970;SDS011;45825;45.434;9.116;2022-08-01T06:00:45;5.45;;;2.58;;
59970;SDS011;45825;45.434;9.116;2022-08-01T06:03:10;10.10;;;3.08;;
59970;SDS011;45825;45.434;9.116;2022-08-01T06:05:36;10.27;;;3.78;;
59970;SDS011;45825;45.434;9.116;2022-08-01T06:08:01;9.23;;;3.30;;
59970;SDS011;45825;45.434;9.116;2022-08-01T06:10:27;12.80;;;3.90;;
59970;SDS011;45825;45.434;9.116;2022-08-01T06:12:52;9.82;;;3.30;;
59970;SDS011;45825;45.434;9.116;2022-08-01T06:15:17;11.05;;;2.90;;
59970;SDS011;45825;45.434;9.116;2022-08-01T06:17:43;7.78;;;2.65;;
59970;SDS011;45825;45.434;9.116;2022-08-01T06:20:08;7.05;;;2.75;;
59970;SDS011;45825;45.434;9.116;2022-08-01T06:22:34;6.53;;;2.90;;
59970;SDS011;45825;45.434;9.116;2022-08-01T06:25:00;5.25;;;2.58;;
59970;SDS011;45825;45.434;9.116;2022-08-01T06:27:25;9.63;;;2.60;;
59970;SDS011;45825;45.434;9.116;2022-08-01T06:29:51;10.30;;;2.70;;
59970;SDS011;45825;45.434;9.116;2022-08-01T06:32:18;13.55;;;3.20;;
59970;SDS011;45825;45.434;9.116;2022-08-01T06:34:44;7.82;;;3.45;;
59970;SDS011;45825;45.434;9.116;2022-08-01T06:37:09;6.82;;;2.97;;
59970;SDS011;45825;45.434;9.116;2022-08-01T06:39:35;6.07;;;2.90;;
59970;SDS011;45825;45.434;9.116;2022-08-01T06:42:00;8.48;;;2.65;;
59970;SDS011;45825;45.434;9.116;2022-08-01T06:44:25;7.93;;;3.67;;
59970;SDS011;45825;45.434;9.116;2022-08-01T06:46:50;7.70;;;2.63;;
59970;SDS011;45825;45.434;9.116;2022-08-01T06:49:16;8.23;;;2.90;;
59970;SDS011;45825;45.434;9.116;2022-08-01T06:51:41;8.23;;;3.60;;
59970;SDS011;45825;45.434;9.116;2022-08-01T06:54:07;6.88;;;3.67;;
59970;SDS011;45825;45.434;9.116;2022-08-01T06:56:32;8.35;;;3.55;;
59970;SDS011;45825;45.434;9.116;2022-08-01T06:59:00;7.28;;;3.22;;
59970;SDS011;45825;45.434;9.116;2022-08-01T07:01:26;8.80;;;3.70;;
59970;SDS011;45825;45.434;9.116;2022-08-01T07:03:53;9.52;;;2.80;;
59970;SDS011;45825;45.434;9.116;2022-08-01T07:06:18;10.93;;;3.92;;
59970;SDS011;45825;45.434;9.116;2022-08-01T07:08:44;6.60;;;3.03;;
59970;SDS011;45825;45.434;9.116;2022-08-01T07:11:09;7.65;;;3.53;;
59970;SDS011;45825;45.434;9.116;2022-08-01T07:13:34;5.70;;;3.30;;
59970;SDS011;45825;45.434;9.116;2022-08-01T07:16:00;8.10;;;3.50;;
59970;SDS011;45825;45.434;9.116;2022-08-01T07:18:25;6.63;;;3.00;;
59970;SDS011;45825;45.434;9.116;2022-08-01T07:20:50;7.65;;;2.88;;
59970;SDS011;45825;45.434;9.116;2022-08-01T07:23:16;8.00;;;3.60;;
59970;SDS011;45825;45.434;9.116;2022-08-01T07:25:42;6.65;;;3.40;;
59970;SDS011;45825;45.434;9.116;2022-08-01T07:28:07;12.25;;;3.58;;
59970;SDS011;45825;45.434;9.116;2022-08-01T07:30:33;5.97;;;2.50;;
59970;SDS011;45825;45.434;9.116;2022-08-01T07:32:59;5.57;;;2.60;;
59970;SDS011;45825;45.434;9.116;2022-08-01T07:35:24;6.15;;;3.28;;
59970;SDS011;45825;45.434;9.116;2022-08-01T07:37:49;5.35;;;2.83;;
59970;SDS011;45825;45.434;9.116;2022-08-01T07:40:15;5.22;;;2.85;;
59970;SDS011;45825;45.434;9.116;2022-08-01T07:42:42;7.10;;;3.40;;
59970;SDS011;45825;45.434;9.116;2022-08-01T07:45:11;6.15;;;3.55;;
59970;SDS011;45825;45.434;9.116;2022-08-01T07:47:37;7.05;;;3.78;;
59970;SDS011;45825;45.434;9.116;2022-08-01T07:50:03;9.15;;;3.45;;
59970;SDS011;45825;45.434;9.116;2022-08-01T07:52:30;9.80;;;3.88;;
59970;SDS011;45825;45.434;9.116;2022-08-01T07:54:56;6.15;;;3.25;;
59970;SDS011;45825;45.434;9.116;2022-08-01T07:57:25;7.00;;;3.30;;
59970;SDS011;45825;45.434;9.116;2022-08-01T07:59:51;9.00;;;3.67;;
59970;SDS011;45825;45.434;9.116;2022-08-01T08:02:16;6.78;;;3.50;;
59970;SDS011;45825;45.434;9.116;2022-08-01T08:04:42;6.57;;;3.35;;
59970;SDS011;45825;45.434;9.116;2022-08-01T08:07:07;7.10;;;3.03;;
59970;SDS011;45825;45.434;9.116;2022-08-01T08:09:33;6.65;;;3.30;;
59970;SDS011;45825;45.434;9.116;2022-08-01T08:11:58;7.25;;;2.95;;
59970;SDS011;45825;45.434;9.116;2022-08-01T08:14:24;4.35;;;2.45;;
59970;SDS011;45825;45.434;9.116;2022-08-01T08:16:49;6.05;;;3.30;;
59970;SDS011;45825;45.434;9.116;2022-08-01T08:19:15;6.85;;;3.20;;
59970;SDS011;45825;45.434;9.116;2022-08-01T08:21:40;5.65;;;3.15;;
59970;SDS011;45825;45.434;9.116;2022-08-01T08:24:06;10.40;;;4.53;;
59970;SDS011;45825;45.434;9.116;2022-08-01T08:26:47;7.18;;;4.60;;
59970;SDS011;45825;45.434;9.116;2022-08-01T08:29:14;11.35;;;8.13;;
59970;SDS011;45825;45.434;9.116;2022-08-01T08:31:39;8.20;;;4.50;;
59970;SDS011;45825;45.434;9.116;2022-08-01T08:34:04;7.78;;;4.18;;
59970;SDS011;45825;45.434;9.116;2022-08-01T08:36:30;6.50;;;2.90;;
59970;SDS011;45825;45.434;9.116;2022-08-01T08:38:55;6.50;;;3.60;;
59970;SDS011;45825;45.434;9.116;2022-08-01T08:41:24;10.65;;;8.43;;
59970;SDS011;45825;45.434;9.116;2022-08-01T08:43:49;7.07;;;4.00;;
59970;SDS011;45825;45.434;9.116;2022-08-01T08:46:14;11.05;;;3.75;;
59970;SDS011;45825;45.434;9.116;2022-08-01T08:48:41;8.18;;;3.75;;
59970;SDS011;45825;45.434;9.116;2022-08-01T08:51:07;7.95;;;3.80;;
59970;SDS011;45825;45.434;9.116;2022-08-01T08:53:34;9.57;;;3.42;;
59970;SDS011;45825;45.434;9.116;2022-08-01T08:56:00;8.68;;;5.30;;
59970;SDS011;45825;45.434;9.116;2022-08-01T08:58:27;20.50;;;6.70;;
59970;SDS011;45825;45.434;9.116;2022-08-01T09:00:55;9.68;;;4.65;;
59970;SDS011;45825;45.434;9.116;2022-08-01T09:03:20;8.73;;;3.58;;
59970;SDS011;45825;45.434;9.116;2022-08-01T09:05:46;8.48;;;4.30;;
59970;SDS011;45825;45.434;9.116;2022-08-01T09:08:11;13.23;;;8.93;;
59970;SDS011;45825;45.434;9.116;2022-08-01T09:10:37;19.67;;;14.43;;
59970;SDS011;45825;45.434;9.116;2022-08-01T09:15:43;9.73;;;4.63;;
59970;SDS011;45825;45.434;9.116;2022-08-01T09:21:09;8.60;;;4.50;;
59970;SDS011;45825;45.434;9.116;2022-08-01T09:23:47;8.70;;;4.03;;
59970;SDS011;45825;45.434;9.116;2022-08-01T09:26:15;9.05;;;3.92;;
59970;SDS011;45825;45.434;9.116;2022-08-01T09:28:43;9.10;;;5.07;;
59970;SDS011;45825;45.434;9.116;2022-08-01T09:31:11;7.40;;;4.22;;
59970;SDS011;45825;45.434;9.116;2022-08-01T09:33:52;10.05;;;4.80;;
59970;SDS011;45825;45.434;9.116;2022-08-01T09:36:20;8.80;;;4.00;;
59970;SDS011;45825;45.434;9.116;2022-08-01T09:38:47;9.18;;;4.43;;
59970;SDS011;45825;45.434;9.116;2022-08-01T09:41:13;8.82;;;3.92;;
59970;SDS011;45825;45.434;9.116;2022-08-01T09:43:38;9.48;;;3.30;;
59970;SDS011;45825;45.434;9.116;2022-08-01T09:46:04;8.10;;;3.85;;
59970;SDS011;45825;45.434;9.116;2022-08-01T09:48:39;7.40;;;3.63;;
59970;SDS011;45825;45.434;9.116;2022-08-01T09:51:38;7.35;;;3.53;;
59970;SDS011;45825;45.434;9.116;2022-08-01T09:54:05;8.23;;;3.75;;
59970;SDS011;45825;45.434;9.116;2022-08-01T09:59:04;8.65;;;3.92;;
59970;SDS011;45825;45.434;9.116;2022-08-01T10:01:46;7.47;;;3.65;;
59970;SDS011;45825;45.434;9.116;2022-08-01T10:04:17;8.95;;;3.05;;
59970;SDS011;45825;45.434;9.116;2022-08-01T10:06:45;6.75;;;3.00;;
59970;SDS011;45825;45.434;9.116;2022-08-01T10:09:14;6.85;;;2.70;;
59970;SDS011;45825;45.434;9.116;2022-08-01T10:11:50;4.65;;;2.38;;
59970;SDS011;45825;45.434;9.116;2022-08-01T10:14:16;8.00;;;3.13;;
59970;SDS011;45825;45.434;9.116;2022-08-01T10:16:44;7.68;;;3.20;;
59970;SDS011;45825;45.434;9.116;2022-08-01T10:19:11;7.60;;;3.13;;
59970;SDS011;45825;45.434;9.116;2022-08-01T10:21:36;8.55;;;3.15;;
59970;SDS011;45825;45.434;9.116;2022-08-01T10:24:03;6.70;;;2.88;;
59970;SDS011;45825;45.434;9.116;2022-08-01T10:26:33;7.30;;;2.97;;
59970;SDS011;45825;45.434;9.116;2022-08-01T10:29:00;6.78;;;2.78;;
59970;SDS011;45825;45.434;9.116;2022-08-01T10:31:26;6.63;;;3.38;;
59970;SDS011;45825;45.434;9.116;2022-08-01T10:33:57;9.95;;;3.60;;
59970;SDS011;45825;45.434;9.116;2022-08-01T10:36:22;8.07;;;3.20;;
59970;SDS011;45825;45.434;9.116;2022-08-01T10:38:49;7.95;;;3.28;;
59970;SDS011;45825;45.434;9.116;2022-08-01T10:41:15;8.82;;;3.22;;
59970;SDS011;45825;45.434;9.116;2022-08-01T10:43:43;7.22;;;2.83;;
59970;SDS011;45825;45.434;9.116;2022-08-01T10:46:08;9.65;;;3.95;;
59970;SDS011;45825;45.434;9.116;2022-08-01T10:48:49;8.65;;;3.20;;
59970;SDS011;45825;45.434;9.116;2022-08-01T10:51:20;5.75;;;2.60;;
59970;SDS011;45825;45.434;9.116;2022-08-01T10:53:55;6.13;;;2.80;;
59970;SDS011;45825;45.434;9.116;2022-08-01T10:56:26;5.20;;;2.20;;
59970;SDS011;45825;45.434;9.116;2022-08-01T10:59:04;3.90;;;1.60;;
59970;SDS011;45825;45.434;9.116;2022-08-01T11:01:30;4.05;;;1.60;;
59970;SDS011;45825;45.434;9.116;2022-08-01T11:06:28;3.40;;;1.80;;
59970;SDS011;45825;45.434;9.116;2022-08-01T11:08:57;5.15;;;1.70;;
59970;SDS011;45825;45.434;9.116;2022-08-01T11:11:24;3.58;;;1.83;;
59970;SDS011;45825;45.434;9.116;2022-08-01T11:16:28;2.90;;;1.50;;
59970;SDS011;45825;45.434;9.116;2022-08-01T11:18:55;5.22;;;1.83;;
59970;SDS011;45825;45.434;9.116;2022-08-01T11:21:20;4.30;;;1.40;;
59970;SDS011;45825;45.434;9.116;2022-08-01T11:23:49;3.50;;;1.40;;
59970;SDS011;45825;45.434;9.116;2022-08-01T11:26:20;2.13;;;1.30;;
59970;SDS011;45825;45.434;9.116;2022-08-01T11:29:10;3.10;;;1.50;;
59970;SDS011;45825;45.434;9.116;2022-08-01T11:31:42;4.25;;;1.40;;
59970;SDS011;45825;45.434;9.116;2022-08-01T11:34:07;2.63;;;1.40;;
59970;SDS011;45825;45.434;9.116;2022-08-01T11:36:34;3.75;;;1.50;;
59970;SDS011;45825;45.434;9.116;2022-08-01T11:41:26;4.10;;;1.80;;
59970;SDS011;45825;45.434;9.116;2022-08-01T11:47:18;4.45;;;1.30;;
59970;SDS011;45825;45.434;9.116;2022-08-01T11:52:06;2.78;;;1.27;;
59970;SDS011;45825;45.434;9.116;2022-08-01T11:57:19;6.03;;;1.40;;
59970;SDS011;45825;45.434;9.116;2022-08-01T11:59:47;4.13;;;1.50;;
59970;SDS011;45825;45.434;9.116;2022-08-01T12:02:35;2.80;;;1.40;;
59970;SDS011;45825;45.434;9.116;2022-08-01T12:07:27;2.88;;;1.20;;
59970;SDS011;45825;45.434;9.116;2022-08-01T12:12:31;2.60;;;1.20;;
59970;SDS011;45825;45.434;9.116;2022-08-01T12:15:05;2.28;;;1.30;;
59970;SDS011;45825;45.434;9.116;2022-08-01T12:17:36;3.30;;;1.40;;
59970;SDS011;45825;45.434;9.116;2022-08-01T12:20:04;3.90;;;1.27;;
59970;SDS011;45825;45.434;9.116;2022-08-01T12:22:32;2.65;;;1.30;;
59970;SDS011;45825;45.434;9.116;2022-08-01T12:27:35;2.78;;;1.20;;
59970;SDS011;45825;45.434;9.116;2022-08-01T12:30:03;2.85;;;1.33;;
59970;SDS011;45825;45.434;9.116;2022-08-01T12:32:32;2.97;;;1.20;;
59970;SDS011;45825;45.434;9.116;2022-08-01T12:35:11;3.80;;;1.20;;
59970;SDS011;45825;45.434;9.116;2022-08-01T12:37:44;2.73;;;1.23;;
59970;SDS011;45825;45.434;9.116;2022-08-01T12:42:49;2.72;;;1.20;;
59970;SDS011;45825;45.434;9.116;2022-08-01T12:45:19;5.15;;;1.33;;
59970;SDS011;45825;45.434;9.116;2022-08-01T12:47:49;2.85;;;1.20;;
59970;SDS011;45825;45.434;9.116;2022-08-01T12:50:17;6.18;;;1.67;;
59970;SDS011;45825;45.434;9.116;2022-08-01T12:52:45;3.47;;;1.40;;
59970;SDS011;45825;45.434;9.116;2022-08-01T12:57:40;4.00;;;1.30;;
59970;SDS011;45825;45.434;9.116;2022-08-01T13:02:34;3.60;;;1.50;;
59970;SDS011;45825;45.434;9.116;2022-08-01T13:05:00;3.75;;;1.60;;
59970;SDS011;45825;45.434;9.116;2022-08-01T13:10:05;2.53;;;1.42;;
59970;SDS011;45825;45.434;9.116;2022-08-01T13:12:31;4.15;;;1.40;;
59970;SDS011;45825;45.434;9.116;2022-08-01T13:14:57;3.13;;;1.45;;
59970;SDS011;45825;45.434;9.116;2022-08-01T13:17:32;3.25;;;1.30;;
59970;SDS011;45825;45.434;9.116;2022-08-01T13:20:05;3.10;;;1.40;;
59970;SDS011;45825;45.434;9.116;2022-08-01T13:22:31;5.13;;;1.50;;
59970;SDS011;45825;45.434;9.116;2022-08-01T13:25:10;3.55;;;1.48;;
59970;SDS011;45825;45.434;9.116;2022-08-01T13:27:37;2.53;;;1.50;;
59970;SDS011;45825;45.434;9.116;2022-08-01T13:30:15;2.53;;;1.30;;
59970;SDS011;45825;45.434;9.116;2022-08-01T13:32:43;2.90;;;1.30;;
59970;SDS011;45825;45.434;9.116;2022-08-01T13:35:28;3.63;;;1.40;;
59970;SDS011;45825;45.434;9.116;2022-08-01T13:37:54;3.15;;;1.30;;
59970;SDS011;45825;45.434;9.116;2022-08-01T13:40:23;2.80;;;1.20;;
59970;SDS011;45825;45.434;9.116;2022-08-01T13:42:55;2.65;;;1.10;;
59970;SDS011;45825;45.434;9.116;2022-08-01T13:45:21;2.88;;;1.30;;
59970;SDS011;45825;45.434;9.116;2022-08-01T13:47:47;4.45;;;1.17;;
59970;SDS011;45825;45.434;9.116;2022-08-01T13:50:12;2.25;;;1.20;;
59970;SDS011;45825;45.434;9.116;2022-08-01T13:52:37;2.65;;;1.17;;
59970;SDS011;45825;45.434;9.116;2022-08-01T13:55:03;2.30;;;1.30;;
59970;SDS011;45825;45.434;9.116;2022-08-01T13:57:28;3.22;;;1.20;;
59970;SDS011;45825;45.434;9.116;2022-08-01T13:59:54;4.45;;;1.27;;
59970;SDS011;45825;45.434;9.116;2022-08-01T14:02:20;2.45;;;1.10;;
59970;SDS011;45825;45.434;9.116;2022-08-01T14:04:46;3.05;;;1.30;;
59970;SDS011;45825;45.434;9.116;2022-08-01T14:07:11;3.75;;;1.60;;
59970;SDS011;45825;45.434;9.116;2022-08-01T14:09:37;3.05;;;1.20;;
59970;SDS011;45825;45.434;9.116;2022-08-01T14:12:03;3.85;;;1.75;;
59970;SDS011;45825;45.434;9.116;2022-08-01T14:14:29;2.30;;;1.13;;
59970;SDS011;45825;45.434;9.116;2022-08-01T14:16:55;2.30;;;1.13;;
59970;SDS011;45825;45.434;9.116;2022-08-01T14:19:21;4.75;;;1.10;;
59970;SDS011;45825;45.434;9.116;2022-08-01T14:21:46;3.78;;;1.23;;
59970;SDS011;45825;45.434;9.116;2022-08-01T14:24:11;2.70;;;1.30;;
59970;SDS011;45825;45.434;9.116;2022-08-01T14:26:37;2.17;;;1.25;;
59970;SDS011;45825;45.434;9.116;2022-08-01T14:29:02;3.33;;;1.30;;
59970;SDS011;45825;45.434;9.116;2022-08-01T14:31:28;3.45;;;1.20;;
59970;SDS011;45825;45.434;9.116;2022-08-01T14:33:54;2.47;;;1.00;;
59970;SDS011;45825;45.434;9.116;2022-08-01T14:36:19;2.35;;;1.02;;
59970;SDS011;45825;45.434;9.116;2022-08-01T14:38:45;2.80;;;1.00;;
59970;SDS011;45825;45.434;9.116;2022-08-01T14:41:11;2.10;;;0.93;;
59970;SDS011;45825;45.434;9.116;2022-08-01T14:43:36;1.95;;;1.08;;
59970;SDS011;45825;45.434;9.116;2022-08-01T14:46:01;3.38;;;1.20;;
59970;SDS011;45825;45.434;9.116;2022-08-01T14:48:28;2.95;;;1.10;;
59970;SDS011;45825;45.434;9.116;2022-08-01T14:50:54;1.98;;;1.10;;
59970;SDS011;45825;45.434;9.116;2022-08-01T14:53:19;2.65;;;1.10;;
59970;SDS011;45825;45.434;9.116;2022-08-01T14:55:45;4.88;;;1.00;;
59970;SDS011;45825;45.434;9.116;2022-08-01T14:58:10;1.52;;;1.00;;
59970;SDS011;45825;45.434;9.116;2022-08-01T15:00:36;3.08;;;1.05;;
59970;SDS011;45825;45.434;9.116;2022-08-01T15:03:01;2.55;;;1.48;;
59970;SDS011;45825;45.434;9.116;2022-08-01T15:05:26;3.38;;;1.00;;
59970;SDS011;45825;45.434;9.116;2022-08-01T15:07:53;3.50;;;1.15;;
59970;SDS011;45825;45.434;9.116;2022-08-01T15:10:19;1.88;;;1.10;;
59970;SDS011;45825;45.434;9.116;2022-08-01T15:12:44;3.40;;;1.10;;
59970;SDS011;45825;45.434;9.116;2022-08-01T15:15:09;3.70;;;1.10;;
59970;SDS011;45825;45.434;9.116;2022-08-01T15:17:35;3.75;;;1.23;;
59970;SDS011;45825;45.434;9.116;2022-08-01T15:20:01;3.05;;;1.50;;
59970;SDS011;45825;45.434;9.116;2022-08-01T15:22:29;1.85;;;1.00;;
59970;SDS011;45825;45.434;9.116;2022-08-01T15:24:56;4.70;;;1.35;;
59970;SDS011;45825;45.434;9.116;2022-08-01T15:27:24;4.85;;;1.25;;
59970;SDS011;45825;45.434;9.116;2022-08-01T15:29:50;2.67;;;1.00;;
59970;SDS011;45825;45.434;9.116;2022-08-01T15:32:16;2.47;;;1.00;;
59970;SDS011;45825;45.434;9.116;2022-08-01T15:34:41;2.53;;;1.00;;
59970;SDS011;45825;45.434;9.116;2022-08-01T15:37:08;2.17;;;1.00;;
59970;SDS011;45825;45.434;9.116;2022-08-01T15:39:34;3.13;;;1.00;;
59970;SDS011;45825;45.434;9.116;2022-08-01T15:42:11;2.08;;;1.00;;
59970;SDS011;45825;45.434;9.116;2022-08-01T15:44:37;3.63;;;1.10;;